sensor_id;sensor_type;location;lat;lon;timestamp;P1;durP1;ratioP1;P2;durP2;ratioP2
72301;SDS011;60235;52.234;5.186;2023-09-19T00:00:27;11.38;;;1.58;;
72301;SDS011;60235;52.234;5.186;2023-09-19T00:02:54;8.63;;;1.70;;
72301;SDS011;60235;52.234;5.186;2023-09-19T00:05:24;9.77;;;1.92;;
72301;SDS011;60235;52.234;5.186;2023-09-19T00:07:53;7.18;;;1.50;;
72301;SDS011;60235;52.234;5.186;2023-09-19T00:10:22;8.02;;;1.80;;
72301;SDS011;60235;52.234;5.186;2023-09-19T00:12:50;9.70;;;1.50;;
72301;SDS011;60235;52.234;5.186;2023-09-19T00:15:17;11.80;;;1.88;;
72301;SDS011;60235;52.234;5.186;2023-09-19T00:17:43;7.88;;;1.45;;
72301;SDS011;60235;52.234;5.186;2023-09-19T00:20:10;7.65;;;1.30;;
72301;SDS011;60235;52.234;5.186;2023-09-19T00:22:41;12.65;;;1.98;;
72301;SDS011;60235;52.234;5.186;2023-09-19T00:25:08;9.63;;;1.90;;
72301;SDS011;60235;52.234;5.186;2023-09-19T00:27:37;8.13;;;1.45;;
72301;SDS011;60235;52.234;5.186;2023-09-19T00:30:07;8.57;;;1.33;;
72301;SDS011;60235;52.234;5.186;2023-09-19T00:32:41;6.65;;;1.30;;
72301;SDS011;60235;52.234;5.186;2023-09-19T00:35:07;9.77;;;1.50;;
72301;SDS011;60235;52.234;5.186;2023-09-19T00:37:34;8.95;;;1.27;;
72301;SDS011;60235;52.234;5.186;2023-09-19T00:40:01;8.48;;;1.38;;
72301;SDS011;60235;52.234;5.186;2023-09-19T00:42:27;12.82;;;1.85;;
72301;SDS011;60235;52.234;5.186;2023-09-19T00:44:53;6.50;;;1.23;;
72301;SDS011;60235;52.234;5.186;2023-09-19T00:47:19;14.75;;;1.70;;
72301;SDS011;60235;52.234;5.186;2023-09-19T00:49:46;5.82;;;1.40;;
72301;SDS011;60235;52.234;5.186;2023-09-19T00:54:41;6.68;;;1.27;;
72301;SDS011;60235;52.234;5.186;2023-09-19T00:57:07;8.25;;;1.20;;
72301;SDS011;60235;52.234;5.186;2023-09-19T00:59:34;9.88;;;1.48;;
72301;SDS011;60235;52.234;5.186;2023-09-19T01:02:01;6.55;;;1.15;;
72301;SDS011;60235;52.234;5.186;2023-09-19T01:04:27;8.27;;;1.50;;
72301;SDS011;60235;52.234;5.186;2023-09-19T01:06:54;7.43;;;1.50;;
72301;SDS011;60235;52.234;5.186;2023-09-19T01:09:20;9.80;;;1.88;;
72301;SDS011;60235;52.234;5.186;2023-09-19T01:11:47;6.70;;;1.52;;
72301;SDS011;60235;52.234;5.186;2023-09-19T01:14:26;7.47;;;1.10;;
72301;SDS011;60235;52.234;5.186;2023-09-19T01:17:03;7.88;;;1.50;;
72301;SDS011;60235;52.234;5.186;2023-09-19T01:24:53;5.65;;;1.30;;
72301;SDS011;60235;52.234;5.186;2023-09-19T01:29:47;8.10;;;1.38;;
72301;SDS011;60235;52.234;5.186;2023-09-19T01:32:18;11.77;;;1.50;;
72301;SDS011;60235;52.234;5.186;2023-09-19T01:34:50;9.88;;;1.48;;
72301;SDS011;60235;52.234;5.186;2023-09-19T01:37:18;7.35;;;1.55;;
72301;SDS011;60235;52.234;5.186;2023-09-19T01:39:51;7.65;;;1.40;;
72301;SDS011;60235;52.234;5.186;2023-09-19T01:42:21;6.50;;;1.15;;
72301;SDS011;60235;52.234;5.186;2023-09-19T01:49:52;8.50;;;1.30;;
72301;SDS011;60235;52.234;5.186;2023-09-19T01:52:20;7.72;;;1.70;;
72301;SDS011;60235;52.234;5.186;2023-09-19T01:54:51;10.65;;;1.95;;
72301;SDS011;60235;52.234;5.186;2023-09-19T01:57:20;7.93;;;1.20;;
72301;SDS011;60235;52.234;5.186;2023-09-19T01:59:49;7.53;;;1.13;;
72301;SDS011;60235;52.234;5.186;2023-09-19T02:02:16;8.90;;;1.58;;
72301;SDS011;60235;52.234;5.186;2023-09-19T02:04:43;7.75;;;1.40;;
72301;SDS011;60235;52.234;5.186;2023-09-19T02:07:09;8.90;;;1.58;;
72301;SDS011;60235;52.234;5.186;2023-09-19T02:09:35;9.57;;;1.77;;
72301;SDS011;60235;52.234;5.186;2023-09-19T02:12:04;10.10;;;1.88;;
72301;SDS011;60235;52.234;5.186;2023-09-19T02:14:30;10.13;;;1.58;;
72301;SDS011;60235;52.234;5.186;2023-09-19T02:16:57;10.20;;;1.58;;
72301;SDS011;60235;52.234;5.186;2023-09-19T02:19:23;9.70;;;1.58;;
72301;SDS011;60235;52.234;5.186;2023-09-19T02:21:49;11.77;;;1.65;;
72301;SDS011;60235;52.234;5.186;2023-09-19T02:24:15;12.02;;;1.65;;
72301;SDS011;60235;52.234;5.186;2023-09-19T02:26:41;9.68;;;1.85;;
72301;SDS011;60235;52.234;5.186;2023-09-19T02:29:07;12.65;;;2.05;;
72301;SDS011;60235;52.234;5.186;2023-09-19T02:31:33;9.55;;;1.52;;
72301;SDS011;60235;52.234;5.186;2023-09-19T02:33:59;7.60;;;1.42;;
72301;SDS011;60235;52.234;5.186;2023-09-19T02:36:25;12.40;;;1.58;;
72301;SDS011;60235;52.234;5.186;2023-09-19T02:38:51;8.88;;;1.80;;
72301;SDS011;60235;52.234;5.186;2023-09-19T02:41:18;8.45;;;1.70;;
72301;SDS011;60235;52.234;5.186;2023-09-19T02:43:44;7.57;;;1.20;;
72301;SDS011;60235;52.234;5.186;2023-09-19T02:46:10;10.60;;;1.75;;
72301;SDS011;60235;52.234;5.186;2023-09-19T02:48:36;9.30;;;1.40;;
72301;SDS011;60235;52.234;5.186;2023-09-19T02:51:03;8.57;;;1.48;;
72301;SDS011;60235;52.234;5.186;2023-09-19T02:53:30;5.90;;;1.20;;
72301;SDS011;60235;52.234;5.186;2023-09-19T02:55:57;12.45;;;1.90;;
72301;SDS011;60235;52.234;5.186;2023-09-19T02:58:24;10.18;;;1.60;;
72301;SDS011;60235;52.234;5.186;2023-09-19T03:00:50;7.40;;;1.50;;
72301;SDS011;60235;52.234;5.186;2023-09-19T03:03:16;8.82;;;1.55;;
72301;SDS011;60235;52.234;5.186;2023-09-19T03:05:42;10.43;;;2.13;;
72301;SDS011;60235;52.234;5.186;2023-09-19T03:08:13;15.15;;;1.80;;
72301;SDS011;60235;52.234;5.186;2023-09-19T03:10:42;13.85;;;1.83;;
72301;SDS011;60235;52.234;5.186;2023-09-19T03:13:08;15.57;;;2.05;;
72301;SDS011;60235;52.234;5.186;2023-09-19T03:15:35;11.45;;;1.65;;
72301;SDS011;60235;52.234;5.186;2023-09-19T03:20:29;15.40;;;1.75;;
72301;SDS011;60235;52.234;5.186;2023-09-19T03:22:55;8.68;;;1.70;;
72301;SDS011;60235;52.234;5.186;2023-09-19T03:25:22;9.30;;;1.80;;
72301;SDS011;60235;52.234;5.186;2023-09-19T03:27:49;11.07;;;1.92;;
72301;SDS011;60235;52.234;5.186;2023-09-19T03:30:15;11.18;;;1.48;;
72301;SDS011;60235;52.234;5.186;2023-09-19T03:32:47;13.18;;;1.88;;
72301;SDS011;60235;52.234;5.186;2023-09-19T03:35:15;11.90;;;2.22;;
72301;SDS011;60235;52.234;5.186;2023-09-19T03:37:42;8.70;;;2.08;;
72301;SDS011;60235;52.234;5.186;2023-09-19T03:40:10;16.17;;;1.88;;
72301;SDS011;60235;52.234;5.186;2023-09-19T03:42:40;10.38;;;2.00;;
72301;SDS011;60235;52.234;5.186;2023-09-19T03:45:07;12.40;;;2.10;;
72301;SDS011;60235;52.234;5.186;2023-09-19T03:47:36;8.77;;;1.60;;
72301;SDS011;60235;52.234;5.186;2023-09-19T03:50:02;12.73;;;2.30;;
72301;SDS011;60235;52.234;5.186;2023-09-19T03:52:28;11.40;;;2.20;;
72301;SDS011;60235;52.234;5.186;2023-09-19T03:54:54;8.73;;;2.10;;
72301;SDS011;60235;52.234;5.186;2023-09-19T03:57:20;12.65;;;1.55;;
72301;SDS011;60235;52.234;5.186;2023-09-19T03:59:46;10.32;;;1.70;;
72301;SDS011;60235;52.234;5.186;2023-09-19T04:02:13;13.10;;;2.88;;
72301;SDS011;60235;52.234;5.186;2023-09-19T04:04:47;11.27;;;2.25;;
72301;SDS011;60235;52.234;5.186;2023-09-19T04:07:13;10.73;;;2.63;;
72301;SDS011;60235;52.234;5.186;2023-09-19T04:09:39;14.35;;;1.90;;
72301;SDS011;60235;52.234;5.186;2023-09-19T04:12:07;6.95;;;1.85;;
72301;SDS011;60235;52.234;5.186;2023-09-19T04:14:36;15.95;;;2.10;;
72301;SDS011;60235;52.234;5.186;2023-09-19T04:17:02;12.38;;;1.77;;
72301;SDS011;60235;52.234;5.186;2023-09-19T04:19:28;12.43;;;1.80;;
72301;SDS011;60235;52.234;5.186;2023-09-19T04:21:54;11.77;;;1.83;;
72301;SDS011;60235;52.234;5.186;2023-09-19T04:24:20;13.75;;;2.55;;
72301;SDS011;60235;52.234;5.186;2023-09-19T04:26:46;12.55;;;1.90;;
72301;SDS011;60235;52.234;5.186;2023-09-19T04:29:13;11.75;;;1.88;;
72301;SDS011;60235;52.234;5.186;2023-09-19T04:31:39;9.75;;;1.77;;
72301;SDS011;60235;52.234;5.186;2023-09-19T04:34:09;9.50;;;1.77;;
72301;SDS011;60235;52.234;5.186;2023-09-19T04:36:35;13.82;;;2.45;;
72301;SDS011;60235;52.234;5.186;2023-09-19T04:39:04;10.20;;;1.73;;
72301;SDS011;60235;52.234;5.186;2023-09-19T04:41:30;9.68;;;1.70;;
72301;SDS011;60235;52.234;5.186;2023-09-19T04:43:56;10.45;;;1.70;;
72301;SDS011;60235;52.234;5.186;2023-09-19T04:46:23;10.35;;;2.05;;
72301;SDS011;60235;52.234;5.186;2023-09-19T04:48:49;8.20;;;1.50;;
72301;SDS011;60235;52.234;5.186;2023-09-19T04:51:15;11.48;;;1.88;;
72301;SDS011;60235;52.234;5.186;2023-09-19T04:53:41;12.50;;;1.92;;
72301;SDS011;60235;52.234;5.186;2023-09-19T04:56:08;11.95;;;2.28;;
72301;SDS011;60235;52.234;5.186;2023-09-19T04:58:34;12.82;;;1.70;;
72301;SDS011;60235;52.234;5.186;2023-09-19T05:01:00;12.20;;;2.45;;
72301;SDS011;60235;52.234;5.186;2023-09-19T05:03:27;8.52;;;1.40;;
72301;SDS011;60235;52.234;5.186;2023-09-19T05:05:54;12.18;;;1.80;;
72301;SDS011;60235;52.234;5.186;2023-09-19T05:08:20;11.55;;;1.98;;
72301;SDS011;60235;52.234;5.186;2023-09-19T05:10:47;14.18;;;2.45;;
72301;SDS011;60235;52.234;5.186;2023-09-19T05:13:14;13.07;;;1.77;;
72301;SDS011;60235;52.234;5.186;2023-09-19T05:15:40;7.50;;;1.73;;
72301;SDS011;60235;52.234;5.186;2023-09-19T05:18:06;11.00;;;2.28;;
72301;SDS011;60235;52.234;5.186;2023-09-19T05:20:32;9.80;;;1.60;;
72301;SDS011;60235;52.234;5.186;2023-09-19T05:23:04;13.00;;;1.65;;
72301;SDS011;60235;52.234;5.186;2023-09-19T05:25:33;11.20;;;1.42;;
72301;SDS011;60235;52.234;5.186;2023-09-19T05:28:02;13.45;;;2.13;;
72301;SDS011;60235;52.234;5.186;2023-09-19T05:30:30;11.60;;;1.63;;
72301;SDS011;60235;52.234;5.186;2023-09-19T05:32:57;12.60;;;2.00;;
72301;SDS011;60235;52.234;5.186;2023-09-19T05:35:23;8.32;;;1.80;;
72301;SDS011;60235;52.234;5.186;2023-09-19T05:37:52;13.20;;;2.40;;
72301;SDS011;60235;52.234;5.186;2023-09-19T05:40:18;10.02;;;1.77;;
72301;SDS011;60235;52.234;5.186;2023-09-19T05:42:44;12.70;;;1.85;;
72301;SDS011;60235;52.234;5.186;2023-09-19T05:45:11;12.15;;;2.00;;
72301;SDS011;60235;52.234;5.186;2023-09-19T05:47:37;14.45;;;2.08;;
72301;SDS011;60235;52.234;5.186;2023-09-19T05:50:05;7.47;;;1.77;;
72301;SDS011;60235;52.234;5.186;2023-09-19T05:52:34;14.57;;;2.10;;
72301;SDS011;60235;52.234;5.186;2023-09-19T05:55:00;13.70;;;1.80;;
72301;SDS011;60235;52.234;5.186;2023-09-19T05:57:26;11.00;;;2.17;;
72301;SDS011;60235;52.234;5.186;2023-09-19T05:59:55;11.98;;;1.75;;
72301;SDS011;60235;52.234;5.186;2023-09-19T06:02:21;10.23;;;1.83;;
72301;SDS011;60235;52.234;5.186;2023-09-19T06:04:47;11.45;;;2.20;;
72301;SDS011;60235;52.234;5.186;2023-09-19T06:07:15;19.45;;;2.20;;
72301;SDS011;60235;52.234;5.186;2023-09-19T06:09:41;11.93;;;1.90;;
72301;SDS011;60235;52.234;5.186;2023-09-19T06:12:07;12.23;;;1.95;;
72301;SDS011;60235;52.234;5.186;2023-09-19T06:14:33;10.13;;;2.15;;
72301;SDS011;60235;52.234;5.186;2023-09-19T06:16:59;13.10;;;2.45;;
72301;SDS011;60235;52.234;5.186;2023-09-19T06:19:25;11.85;;;1.70;;
72301;SDS011;60235;52.234;5.186;2023-09-19T06:21:52;10.65;;;2.17;;
72301;SDS011;60235;52.234;5.186;2023-09-19T06:24:19;11.10;;;2.00;;
72301;SDS011;60235;52.234;5.186;2023-09-19T06:26:46;9.30;;;2.15;;
72301;SDS011;60235;52.234;5.186;2023-09-19T06:29:12;14.20;;;2.15;;
72301;SDS011;60235;52.234;5.186;2023-09-19T06:31:39;10.93;;;1.88;;
72301;SDS011;60235;52.234;5.186;2023-09-19T06:34:05;15.73;;;2.40;;
72301;SDS011;60235;52.234;5.186;2023-09-19T06:36:32;10.88;;;2.25;;
72301;SDS011;60235;52.234;5.186;2023-09-19T06:38:58;10.20;;;1.90;;
72301;SDS011;60235;52.234;5.186;2023-09-19T06:41:24;16.05;;;2.67;;
72301;SDS011;60235;52.234;5.186;2023-09-19T06:43:50;11.10;;;2.13;;
72301;SDS011;60235;52.234;5.186;2023-09-19T06:46:18;17.20;;;2.30;;
72301;SDS011;60235;52.234;5.186;2023-09-19T06:48:44;10.93;;;2.13;;
72301;SDS011;60235;52.234;5.186;2023-09-19T06:51:12;14.23;;;2.35;;
72301;SDS011;60235;52.234;5.186;2023-09-19T06:53:40;13.23;;;2.38;;
72301;SDS011;60235;52.234;5.186;2023-09-19T06:56:06;18.75;;;2.42;;
72301;SDS011;60235;52.234;5.186;2023-09-19T06:58:32;16.52;;;2.33;;
72301;SDS011;60235;52.234;5.186;2023-09-19T07:01:01;14.23;;;2.53;;
72301;SDS011;60235;52.234;5.186;2023-09-19T07:03:28;16.30;;;2.65;;
72301;SDS011;60235;52.234;5.186;2023-09-19T07:05:54;13.27;;;1.85;;
72301;SDS011;60235;52.234;5.186;2023-09-19T07:08:21;16.13;;;2.58;;
72301;SDS011;60235;52.234;5.186;2023-09-19T07:10:47;9.60;;;2.60;;
72301;SDS011;60235;52.234;5.186;2023-09-19T07:13:13;9.88;;;2.30;;
72301;SDS011;60235;52.234;5.186;2023-09-19T07:15:42;15.18;;;2.20;;
72301;SDS011;60235;52.234;5.186;2023-09-19T07:18:15;9.98;;;1.80;;
72301;SDS011;60235;52.234;5.186;2023-09-19T07:20:42;11.90;;;2.45;;
72301;SDS011;60235;52.234;5.186;2023-09-19T07:25:38;21.48;;;3.13;;
72301;SDS011;60235;52.234;5.186;2023-09-19T07:28:04;15.75;;;2.95;;
72301;SDS011;60235;52.234;5.186;2023-09-19T07:30:31;11.75;;;1.70;;
72301;SDS011;60235;52.234;5.186;2023-09-19T07:32:57;14.50;;;2.50;;
72301;SDS011;60235;52.234;5.186;2023-09-19T07:35:23;13.02;;;2.10;;
72301;SDS011;60235;52.234;5.186;2023-09-19T07:37:50;11.82;;;1.83;;
72301;SDS011;60235;52.234;5.186;2023-09-19T07:40:19;10.57;;;2.03;;
72301;SDS011;60235;52.234;5.186;2023-09-19T07:42:46;13.30;;;2.20;;
72301;SDS011;60235;52.234;5.186;2023-09-19T07:45:12;11.15;;;2.13;;
72301;SDS011;60235;52.234;5.186;2023-09-19T07:47:45;13.98;;;1.80;;
72301;SDS011;60235;52.234;5.186;2023-09-19T07:50:12;13.20;;;2.08;;
72301;SDS011;60235;52.234;5.186;2023-09-19T07:52:38;13.98;;;2.90;;
72301;SDS011;60235;52.234;5.186;2023-09-19T07:55:08;14.77;;;2.13;;
72301;SDS011;60235;52.234;5.186;2023-09-19T07:57:34;12.40;;;2.33;;
72301;SDS011;60235;52.234;5.186;2023-09-19T08:00:01;17.23;;;2.40;;
72301;SDS011;60235;52.234;5.186;2023-09-19T08:02:29;18.48;;;2.45;;
72301;SDS011;60235;52.234;5.186;2023-09-19T08:04:55;12.82;;;2.40;;
72301;SDS011;60235;52.234;5.186;2023-09-19T08:07:22;18.15;;;3.00;;
72301;SDS011;60235;52.234;5.186;2023-09-19T08:09:48;17.08;;;2.35;;
72301;SDS011;60235;52.234;5.186;2023-09-19T08:12:14;13.85;;;2.47;;
72301;SDS011;60235;52.234;5.186;2023-09-19T08:14:41;12.98;;;2.03;;
72301;SDS011;60235;52.234;5.186;2023-09-19T08:17:08;16.20;;;2.47;;
72301;SDS011;60235;52.234;5.186;2023-09-19T08:19:34;14.75;;;2.58;;
72301;SDS011;60235;52.234;5.186;2023-09-19T08:22:01;16.17;;;2.30;;
72301;SDS011;60235;52.234;5.186;2023-09-19T08:24:28;13.60;;;2.58;;
72301;SDS011;60235;52.234;5.186;2023-09-19T08:26:54;12.82;;;2.53;;
72301;SDS011;60235;52.234;5.186;2023-09-19T08:29:21;13.60;;;2.53;;
72301;SDS011;60235;52.234;5.186;2023-09-19T08:31:52;19.30;;;3.05;;
72301;SDS011;60235;52.234;5.186;2023-09-19T08:34:18;12.95;;;2.42;;
72301;SDS011;60235;52.234;5.186;2023-09-19T08:36:44;11.23;;;2.78;;
72301;SDS011;60235;52.234;5.186;2023-09-19T08:39:11;17.15;;;2.80;;
72301;SDS011;60235;52.234;5.186;2023-09-19T08:41:38;14.23;;;2.38;;
72301;SDS011;60235;52.234;5.186;2023-09-19T08:44:04;16.92;;;2.53;;
72301;SDS011;60235;52.234;5.186;2023-09-19T08:46:30;14.13;;;2.28;;
72301;SDS011;60235;52.234;5.186;2023-09-19T08:49:05;15.63;;;3.17;;
72301;SDS011;60235;52.234;5.186;2023-09-19T08:51:41;16.30;;;2.33;;
72301;SDS011;60235;52.234;5.186;2023-09-19T08:54:28;15.10;;;2.65;;
72301;SDS011;60235;52.234;5.186;2023-09-19T08:56:54;16.95;;;3.10;;
72301;SDS011;60235;52.234;5.186;2023-09-19T08:59:22;14.68;;;2.28;;
72301;SDS011;60235;52.234;5.186;2023-09-19T09:01:54;13.80;;;2.28;;
72301;SDS011;60235;52.234;5.186;2023-09-19T09:04:21;14.75;;;2.75;;
72301;SDS011;60235;52.234;5.186;2023-09-19T09:06:48;12.45;;;2.47;;
72301;SDS011;60235;52.234;5.186;2023-09-19T09:09:18;12.65;;;2.33;;
72301;SDS011;60235;52.234;5.186;2023-09-19T09:11:44;12.18;;;2.10;;
72301;SDS011;60235;52.234;5.186;2023-09-19T09:14:10;12.18;;;2.50;;
72301;SDS011;60235;52.234;5.186;2023-09-19T09:16:37;11.27;;;2.10;;
72301;SDS011;60235;52.234;5.186;2023-09-19T09:19:04;11.90;;;2.50;;
72301;SDS011;60235;52.234;5.186;2023-09-19T09:21:30;17.65;;;2.20;;
72301;SDS011;60235;52.234;5.186;2023-09-19T09:24:25;11.55;;;2.30;;
72301;SDS011;60235;52.234;5.186;2023-09-19T09:26:47;14.43;;;2.10;;
72301;SDS011;60235;52.234;5.186;2023-09-19T09:29:15;10.80;;;2.00;;
72301;SDS011;60235;52.234;5.186;2023-09-19T09:31:41;14.13;;;2.40;;
72301;SDS011;60235;52.234;5.186;2023-09-19T09:34:07;12.73;;;2.20;;
72301;SDS011;60235;52.234;5.186;2023-09-19T09:36:38;18.45;;;2.08;;
72301;SDS011;60235;52.234;5.186;2023-09-19T09:39:06;13.88;;;2.53;;
72301;SDS011;60235;52.234;5.186;2023-09-19T09:41:43;12.48;;;2.30;;
72301;SDS011;60235;52.234;5.186;2023-09-19T09:44:14;18.67;;;2.90;;
72301;SDS011;60235;52.234;5.186;2023-09-19T09:46:44;13.13;;;2.47;;
72301;SDS011;60235;52.234;5.186;2023-09-19T09:49:23;14.25;;;2.22;;
72301;SDS011;60235;52.234;5.186;2023-09-19T09:51:49;14.50;;;2.08;;
72301;SDS011;60235;52.234;5.186;2023-09-19T09:54:26;15.30;;;2.47;;
72301;SDS011;60235;52.234;5.186;2023-09-19T09:57:01;11.68;;;3.08;;
72301;SDS011;60235;52.234;5.186;2023-09-19T10:02:21;12.93;;;2.30;;
72301;SDS011;60235;52.234;5.186;2023-09-19T10:04:53;15.15;;;2.90;;
72301;SDS011;60235;52.234;5.186;2023-09-19T10:07:39;14.57;;;2.40;;
72301;SDS011;60235;52.234;5.186;2023-09-19T10:10:08;15.55;;;2.22;;
72301;SDS011;60235;52.234;5.186;2023-09-19T10:12:49;13.57;;;2.15;;
72301;SDS011;60235;52.234;5.186;2023-09-19T10:15:21;9.68;;;2.40;;
72301;SDS011;60235;52.234;5.186;2023-09-19T10:17:50;8.20;;;1.90;;
72301;SDS011;60235;52.234;5.186;2023-09-19T10:20:19;14.30;;;2.20;;
72301;SDS011;60235;52.234;5.186;2023-09-19T10:23:09;9.68;;;1.80;;
72301;SDS011;60235;52.234;5.186;2023-09-19T10:25:45;9.02;;;2.30;;
72301;SDS011;60235;52.234;5.186;2023-09-19T10:28:12;9.75;;;1.95;;
72301;SDS011;60235;52.234;5.186;2023-09-19T10:30:42;10.98;;;2.00;;
72301;SDS011;60235;52.234;5.186;2023-09-19T10:33:10;13.30;;;2.00;;
72301;SDS011;60235;52.234;5.186;2023-09-19T10:35:41;15.68;;;2.67;;
72301;SDS011;60235;52.234;5.186;2023-09-19T10:38:09;9.32;;;1.92;;
72301;SDS011;60235;52.234;5.186;2023-09-19T10:40:36;14.80;;;2.20;;
72301;SDS011;60235;52.234;5.186;2023-09-19T10:43:05;13.23;;;1.95;;
72301;SDS011;60235;52.234;5.186;2023-09-19T10:45:33;9.93;;;1.70;;
72301;SDS011;60235;52.234;5.186;2023-09-19T10:48:01;11.38;;;1.55;;
72301;SDS011;60235;52.234;5.186;2023-09-19T10:50:30;16.33;;;2.47;;
72301;SDS011;60235;52.234;5.186;2023-09-19T10:52:59;11.55;;;3.28;;
72301;SDS011;60235;52.234;5.186;2023-09-19T10:55:29;14.32;;;2.03;;
72301;SDS011;60235;52.234;5.186;2023-09-19T10:57:56;11.65;;;1.80;;
72301;SDS011;60235;52.234;5.186;2023-09-19T11:00:52;11.13;;;2.13;;
72301;SDS011;60235;52.234;5.186;2023-09-19T11:03:18;8.43;;;1.85;;
72301;SDS011;60235;52.234;5.186;2023-09-19T11:14:29;12.52;;;1.75;;
72301;SDS011;60235;52.234;5.186;2023-09-19T11:17:54;8.63;;;1.48;;
72301;SDS011;60235;52.234;5.186;2023-09-19T11:30:34;7.85;;;1.60;;
72301;SDS011;60235;52.234;5.186;2023-09-19T11:36:04;9.82;;;1.45;;
72301;SDS011;60235;52.234;5.186;2023-09-19T11:43:49;9.10;;;1.45;;
72301;SDS011;60235;52.234;5.186;2023-09-19T11:46:16;11.55;;;1.85;;
72301;SDS011;60235;52.234;5.186;2023-09-19T11:48:47;8.27;;;1.83;;
72301;SDS011;60235;52.234;5.186;2023-09-19T11:51:14;10.40;;;1.33;;
72301;SDS011;60235;52.234;5.186;2023-09-19T11:53:44;10.02;;;1.70;;
72301;SDS011;60235;52.234;5.186;2023-09-19T11:56:13;10.43;;;1.88;;
72301;SDS011;60235;52.234;5.186;2023-09-19T11:58:40;7.57;;;1.25;;
72301;SDS011;60235;52.234;5.186;2023-09-19T12:01:07;8.07;;;2.20;;
72301;SDS011;60235;52.234;5.186;2023-09-19T12:03:38;7.95;;;1.60;;
72301;SDS011;60235;52.234;5.186;2023-09-19T12:06:12;6.40;;;1.25;;
72301;SDS011;60235;52.234;5.186;2023-09-19T12:08:39;6.03;;;1.30;;
72301;SDS011;60235;52.234;5.186;2023-09-19T12:11:07;7.13;;;1.30;;
72301;SDS011;60235;52.234;5.186;2023-09-19T12:13:41;7.05;;;1.45;;
72301;SDS011;60235;52.234;5.186;2023-09-19T12:16:14;11.05;;;1.25;;
72301;SDS011;60235;52.234;5.186;2023-09-19T12:18:41;7.53;;;1.40;;
72301;SDS011;60235;52.234;5.186;2023-09-19T12:21:20;6.78;;;1.20;;
72301;SDS011;60235;52.234;5.186;2023-09-19T12:24:03;6.50;;;1.63;;
72301;SDS011;60235;52.234;5.186;2023-09-19T12:26:30;6.20;;;1.38;;
72301;SDS011;60235;52.234;5.186;2023-09-19T12:28:59;10.68;;;1.45;;
72301;SDS011;60235;52.234;5.186;2023-09-19T12:31:26;7.13;;;1.40;;
72301;SDS011;60235;52.234;5.186;2023-09-19T12:33:53;7.05;;;1.42;;
72301;SDS011;60235;52.234;5.186;2023-09-19T12:36:21;10.00;;;1.52;;
72301;SDS011;60235;52.234;5.186;2023-09-19T12:38:57;5.78;;;1.58;;
72301;SDS011;60235;52.234;5.186;2023-09-19T12:41:24;9.38;;;1.67;;
72301;SDS011;60235;52.234;5.186;2023-09-19T12:43:51;6.80;;;1.40;;
72301;SDS011;60235;52.234;5.186;2023-09-19T12:46:19;6.95;;;2.10;;
72301;SDS011;60235;52.234;5.186;2023-09-19T12:48:50;6.85;;;1.38;;
72301;SDS011;60235;52.234;5.186;2023-09-19T12:51:37;8.25;;;1.90;;
72301;SDS011;60235;52.234;5.186;2023-09-19T12:54:03;10.38;;;2.03;;
72301;SDS011;60235;52.234;5.186;2023-09-19T12:56:30;7.40;;;1.50;;
72301;SDS011;60235;52.234;5.186;2023-09-19T12:59:06;9.50;;;1.20;;
72301;SDS011;60235;52.234;5.186;2023-09-19T13:01:34;6.93;;;1.35;;
72301;SDS011;60235;52.234;5.186;2023-09-19T13:06:37;6.22;;;1.00;;
72301;SDS011;60235;52.234;5.186;2023-09-19T13:09:08;4.97;;;0.90;;
72301;SDS011;60235;52.234;5.186;2023-09-19T13:11:38;5.25;;;1.00;;
72301;SDS011;60235;52.234;5.186;2023-09-19T13:14:27;8.00;;;1.30;;
72301;SDS011;60235;52.234;5.186;2023-09-19T13:24:56;6.53;;;1.30;;
72301;SDS011;60235;52.234;5.186;2023-09-19T13:27:23;10.63;;;1.33;;
72301;SDS011;60235;52.234;5.186;2023-09-19T13:29:49;5.57;;;1.23;;
72301;SDS011;60235;52.234;5.186;2023-09-19T13:32:15;7.28;;;1.20;;
72301;SDS011;60235;52.234;5.186;2023-09-19T13:34:41;9.52;;;1.23;;
72301;SDS011;60235;52.234;5.186;2023-09-19T13:37:07;10.23;;;1.20;;
72301;SDS011;60235;52.234;5.186;2023-09-19T13:39:34;9.88;;;1.00;;
72301;SDS011;60235;52.234;5.186;2023-09-19T13:42:01;7.45;;;1.88;;
72301;SDS011;60235;52.234;5.186;2023-09-19T13:44:28;9.40;;;1.40;;
72301;SDS011;60235;52.234;5.186;2023-09-19T13:46:55;6.68;;;1.30;;
72301;SDS011;60235;52.234;5.186;2023-09-19T13:49:21;6.65;;;1.58;;
72301;SDS011;60235;52.234;5.186;2023-09-19T13:51:48;6.00;;;1.30;;
72301;SDS011;60235;52.234;5.186;2023-09-19T13:54:14;4.93;;;1.33;;
72301;SDS011;60235;52.234;5.186;2023-09-19T13:56:40;6.47;;;1.23;;
72301;SDS011;60235;52.234;5.186;2023-09-19T13:59:07;6.30;;;1.20;;
72301;SDS011;60235;52.234;5.186;2023-09-19T14:01:33;8.18;;;1.50;;
72301;SDS011;60235;52.234;5.186;2023-09-19T14:03:59;7.72;;;1.40;;
72301;SDS011;60235;52.234;5.186;2023-09-19T14:06:26;7.03;;;1.33;;
72301;SDS011;60235;52.234;5.186;2023-09-19T14:08:52;8.98;;;1.30;;
72301;SDS011;60235;52.234;5.186;2023-09-19T14:11:18;9.00;;;1.45;;
72301;SDS011;60235;52.234;5.186;2023-09-19T14:13:44;12.98;;;1.95;;
72301;SDS011;60235;52.234;5.186;2023-09-19T14:18:39;8.52;;;1.63;;
72301;SDS011;60235;52.234;5.186;2023-09-19T14:21:05;7.05;;;1.52;;
72301;SDS011;60235;52.234;5.186;2023-09-19T14:23:37;10.82;;;1.80;;
72301;SDS011;60235;52.234;5.186;2023-09-19T14:26:04;7.13;;;1.67;;
72301;SDS011;60235;52.234;5.186;2023-09-19T14:28:30;9.55;;;1.65;;
72301;SDS011;60235;52.234;5.186;2023-09-19T14:31:03;7.05;;;1.65;;
72301;SDS011;60235;52.234;5.186;2023-09-19T14:33:29;6.15;;;1.45;;
72301;SDS011;60235;52.234;5.186;2023-09-19T14:35:56;10.90;;;2.03;;
72301;SDS011;60235;52.234;5.186;2023-09-19T14:38:22;9.75;;;1.90;;
72301;SDS011;60235;52.234;5.186;2023-09-19T14:40:48;10.68;;;1.83;;
72301;SDS011;60235;52.234;5.186;2023-09-19T14:43:15;8.25;;;2.22;;
72301;SDS011;60235;52.234;5.186;2023-09-19T14:45:41;11.30;;;1.80;;
72301;SDS011;60235;52.234;5.186;2023-09-19T14:48:07;15.15;;;2.60;;
72301;SDS011;60235;52.234;5.186;2023-09-19T14:50:33;9.50;;;2.05;;
72301;SDS011;60235;52.234;5.186;2023-09-19T14:52:59;8.30;;;1.95;;
72301;SDS011;60235;52.234;5.186;2023-09-19T14:55:27;11.25;;;1.95;;
72301;SDS011;60235;52.234;5.186;2023-09-19T14:57:54;7.13;;;1.90;;
72301;SDS011;60235;52.234;5.186;2023-09-19T15:00:23;11.32;;;2.53;;
72301;SDS011;60235;52.234;5.186;2023-09-19T15:02:49;12.63;;;2.67;;
72301;SDS011;60235;52.234;5.186;2023-09-19T15:05:16;9.82;;;2.60;;
72301;SDS011;60235;52.234;5.186;2023-09-19T15:07:42;11.30;;;2.10;;
72301;SDS011;60235;52.234;5.186;2023-09-19T15:10:08;9.50;;;2.60;;
72301;SDS011;60235;52.234;5.186;2023-09-19T15:12:37;12.35;;;2.08;;
72301;SDS011;60235;52.234;5.186;2023-09-19T15:15:05;14.25;;;2.95;;
72301;SDS011;60235;52.234;5.186;2023-09-19T15:17:34;12.23;;;2.30;;
72301;SDS011;60235;52.234;5.186;2023-09-19T15:20:01;9.63;;;2.88;;
72301;SDS011;60235;52.234;5.186;2023-09-19T15:22:27;9.45;;;1.70;;
72301;SDS011;60235;52.234;5.186;2023-09-19T15:24:53;9.13;;;2.22;;
72301;SDS011;60235;52.234;5.186;2023-09-19T15:27:20;9.52;;;1.85;;
72301;SDS011;60235;52.234;5.186;2023-09-19T15:29:46;10.48;;;1.92;;
72301;SDS011;60235;52.234;5.186;2023-09-19T15:32:12;10.80;;;2.40;;
72301;SDS011;60235;52.234;5.186;2023-09-19T15:34:38;8.15;;;2.08;;
72301;SDS011;60235;52.234;5.186;2023-09-19T15:37:04;10.77;;;2.15;;
72301;SDS011;60235;52.234;5.186;2023-09-19T15:39:30;9.88;;;2.33;;
72301;SDS011;60235;52.234;5.186;2023-09-19T15:44:25;12.80;;;2.05;;
72301;SDS011;60235;52.234;5.186;2023-09-19T15:46:52;11.77;;;2.05;;
72301;SDS011;60235;52.234;5.186;2023-09-19T15:49:18;12.35;;;2.72;;
72301;SDS011;60235;52.234;5.186;2023-09-19T15:51:44;15.30;;;2.47;;